Página principal
METAR-TAF:

METAR-TAF

Aeroportos :

Gran Canária, Espanha

Aeroporto de Gran Canária

latitude: 27-56N, longitude: 015-23W, altura: 23 m

Observação actual do tempo

O boletim foi feito há 30 minutos, às 10:30 UTC
Vento 19 kt de nor-nordeste
Temperatura 25°C
Humidade 57%
Pressão 1023 hPa
Visibilidade 10 km ou mais
Poucas nuvensa uma altura de 2800 ft

METAR: GCLP 181030Z 02019KT 9999 FEW028 25/16 Q1023 NOSIG

Hora: 12:00 (11:00 UTC)

Previsão

O boletim foi feito há 3 horas e 0 minutos, às 08:00 UTC
Previsão válida de 18 às 09 UTC a 19 às 09 UTC
Vento 18 kt de nor-nordeste
Visibilidade 10 km ou mais
Poucas nuvensa uma altura de 2000 ft

TAF: GCLP 180800Z 1809/1909 03018KT 9999 FEW020 TX23/1813Z TN20/1906Z

Observações e previsões do tempo de mais de 4000 aeroportos (mensagens METAR e TAF).

As estações disponíveis são os pontos amarelos e vermelhos sobre o mapa.

Mova o rato sobre o mapa para ver o nome da estação.

Depois clique no ponto para visualizar as observações e previsões meteorológicas.

Para alterar o mapa : clique nos botões verdes com uma cruz preta para aumentar o zoom; no botão verde com uma pitada de zoom; ou nas setas verdes para mapas adjacentes.


METAR-TAF: